Погода Лешноволяна неделю

Мазовецкое воеводство, Польша

18 - 24 мая
  • 18мая
    Сегодня
    +12°
    +23°
    Небольшая облачность
    ВремяПогодаТемператураВлажностьДавлениеВетер, м/сВероятность осадков
    02:00Ясно и безоблачно+12°C54 %752 мм3.0 м/с2 %
    05:00Ясно и безоблачно+11°C61 %752 мм2.6 м/с2 %
    08:00Практически безоблачно+16°C49 %752 мм3.8 м/с2 %
    11:00Ясно и безоблачно+21°C38 %752 мм4.5 м/с2 %
    14:00Небольшая облачность+23°C33 %751 мм4.7 м/с2 %
    17:00Облачно с прояснениями+22°C34 %750 мм4.0 м/с10 %
    20:00Практически безоблачно+19°C53 %750 мм2.6 м/с3 %
    23:00Ясно и безоблачно+15°C72 %751 мм2.1 м/с2 %
  • 19мая
    Воскресенье
    +13°
    +24°
    Практически безоблачно
    ВремяПогодаТемператураВлажностьДавлениеВетер, м/сВероятность осадков
    02:00Ясно и безоблачно+13°C84 %751 мм2.1 м/с2 %
    05:00Облачно с прояснениями+11°C93 %750 мм1.8 м/с1 %
    08:00Пасмурно, сплошная облачность+16°C76 %751 мм2.7 м/с6 %
    11:00Облачно с прояснениями+21°C52 %750 мм3.5 м/с16 %
    14:00Практически безоблачно+23°C45 %749 мм3.5 м/с9 %
    17:00Облачно с прояснениями+23°C41 %748 мм3.0 м/с25 %
    20:00Облачно с прояснениями+20°C72 %748 мм2.0 м/с33 %
    23:00Облачно с прояснениями+17°C82 %749 мм1.4 м/с15 %
  • 20мая
    Понедельник
    +14°
    +25°
    Практически безоблачно
    ВремяПогодаТемператураВлажностьДавлениеВетер, м/сВероятность осадков
    02:00Небольшая облачность+14°C94 %749 мм1.5 м/с12 %
    05:00Облачно с прояснениями+13°C93 %749 мм1.3 м/с18 %
    08:00Небольшая облачность+18°C85 %750 мм2.3 м/с25 %
    11:00Практически безоблачно+22°C61 %750 мм2.6 м/с35 %
    14:00Практически безоблачно+24°C50 %750 мм2.8 м/с31 %
    17:00Практически безоблачно+23°C46 %749 мм3.3 м/с33 %
    20:00Небольшая облачность+21°C57 %750 мм3.2 м/с20 %
    23:00Облачно с прояснениями+17°C79 %750 мм2.6 м/с2 %
  • 21мая
    Вторник
    +15°
    +29°
    Ясно и безоблачно
    ВремяПогодаТемператураВлажностьДавлениеВетер, м/сВероятность осадков
    02:00Небольшая облачность+14°C94 %750 мм2.1 м/с2 %
    05:00Ясно и безоблачно+13°C97 %751 мм1.8 м/с2 %
    08:00Ясно и безоблачно+19°C77 %751 мм3.0 м/с2 %
    11:00Ясно и безоблачно+25°C51 %751 мм4.0 м/с13 %
    14:00Ясно и безоблачно+26°C42 %750 мм4.2 м/с16 %
    17:00Ясно и безоблачно+27°C39 %749 мм4.6 м/с16 %
    20:00Практически безоблачно+24°C48 %749 мм4.9 м/с19 %
    23:00Ясно и безоблачно+20°C61 %749 мм3.8 м/с6 %
Мы используем cookies
Соглашаюсь